Time;durP1;ratioP1;P1;durP2;ratioP2;P2;SDS_P1;SDS_P2;PMS_P1;PMS_P2;Temp;Humidity;BMP_temperature;BMP_pressure;BME280_temperature;BME280_humidity;BME280_pressure;Samples;Min_cycle;Max_cycle;Signal;HPM_P1;HPM_P2
2023/03/12 00:00:48;;;;;;;;;;;;;;;1.78;68.84;99114.16;5114800;28;19919;-66
2023/03/12 00:03:17;;;;;;;;;;;;;;;1.78;68.47;99120.03;5114733;28;19970;-67
2023/03/12 00:05:47;;;;;;;;;;;;;;;1.75;68.86;99121.63;5114080;28;20397;-67
2023/03/12 00:08:16;;;;;;;;;;;;;;;1.72;67.98;99119.03;5114723;28;20002;-67
2023/03/12 00:10:44;;;;;;;;;;;;;;;1.71;67.80;99117.31;5114984;28;19920;-67
2023/03/12 00:13:13;;;;;;;;;;;;;;;1.62;68.15;99132.19;5114601;28;19919;-67
2023/03/12 00:15:41;;;;;;;;;;;;;;;1.59;68.26;99127.06;5114469;28;19970;-66
2023/03/12 00:18:10;;;;;;;;;;;;;;;1.50;68.21;99127.69;5114411;28;19966;-66
2023/03/12 00:20:38;;;;;;;;;;;;;;;1.32;68.59;99130.56;5114524;28;19926;-67
2023/03/12 00:23:08;;;;;;;;;;;;;;;1.24;69.26;99129.53;5114779;28;20361;-67
2023/03/12 00:25:36;;;;;;;;;;;;;;;1.12;69.47;99134.22;5114523;28;20010;-67
2023/03/12 00:28:05;;;;;;;;;;;;;;;1.00;69.68;99138.91;5114746;28;19926;-66
2023/03/12 00:30:33;;;;;;;;;;;;;;;0.91;69.95;99148.66;5114432;28;19951;-66
2023/03/12 00:33:02;;;;;;;;;;;;;;;0.89;70.21;99145.25;5114401;28;19919;-66
2023/03/12 00:35:31;;;;;;;;;;;;;;;0.83;69.83;99160.19;5114392;28;19920;-66
2023/03/12 00:38:00;;;;;;;;;;;;;;;0.77;70.69;99170.03;5113108;28;19920;-66
2023/03/12 00:40:30;;;;;;;;;;;;;;;0.81;70.26;99166.81;5114341;28;20026;-66
2023/03/12 00:42:58;;;;;;;;;;;;;;;0.81;70.83;99160.94;5114663;28;19919;-67
2023/03/12 00:45:27;;;;;;;;;;;;;;;0.76;70.95;99175.88;5114635;28;19923;-66
2023/03/12 00:47:55;;;;;;;;;;;;;;;0.78;71.60;99171.75;5114220;28;19962;-66
2023/03/12 00:50:24;;;;;;;;;;;;;;;0.83;70.87;99170.22;5114213;28;19920;-67
2023/03/12 00:52:52;;;;;;;;;;;;;;;0.82;71.33;99168.50;5112992;28;19920;-66
2023/03/12 00:55:21;;;;;;;;;;;;;;;0.84;71.50;99176.09;5113292;28;19920;-66
2023/03/12 00:57:51;;;;;;;;;;;;;;;0.84;71.40;99173.59;5112958;28;19920;-66
2023/03/12 01:00:20;;;;;;;;;;;;;;;0.85;71.69;99178.66;5112914;28;19919;-67
2023/03/12 01:02:49;;;;;;;;;;;;;;;0.86;71.44;99177.00;5114212;28;20345;-66
2023/03/12 01:05:17;;;;;;;;;;;;;;;0.91;71.50;99186.34;5114708;28;20348;-66
2023/03/12 01:07:47;;;;;;;;;;;;;;;1.00;70.66;99189.16;5114070;28;19968;-67
2023/03/12 01:10:16;;;;;;;;;;;;;;;1.03;70.64;99193.41;5096382;28;20350;-66
2023/03/12 01:12:46;;;;;;;;;;;;;;;1.08;70.05;99182.66;5114101;28;19920;-66
2023/03/12 01:15:18;;;;;;;;;;;;;;;1.09;70.50;99170.97;5113789;28;19964;-66
2023/03/12 01:17:46;;;;;;;;;;;;;;;1.18;70.11;99174.56;5116408;28;19980;-66
2023/03/12 01:20:15;;;;;;;;;;;;;;;1.18;69.75;99177.09;5117711;28;19919;-66
2023/03/12 01:22:44;;;;;;;;;;;;;;;1.17;70.22;99170.38;5117896;28;19919;-65
2023/03/12 01:25:12;;;;;;;;;;;;;;;1.17;69.21;99172.91;5117764;28;20373;-66
2023/03/12 01:27:41;;;;;;;;;;;;;;;1.19;69.87;99181.31;5118033;28;19978;-65
2023/03/12 01:30:10;;;;;;;;;;;;;;;1.14;69.22;99182.84;5118065;28;20288;-65
2023/03/12 01:32:40;;;;;;;;;;;;;;;1.09;69.25;99186.88;5117622;28;20392;-64
2023/03/12 01:35:09;;;;;;;;;;;;;;;1.09;69.74;99189.41;5117577;28;19927;-66
2023/03/12 01:37:37;;;;;;;;;;;;;;;1.07;70.02;99196.06;5116688;28;20018;-65
2023/03/12 01:40:06;;;;;;;;;;;;;;;1.08;69.66;99192.72;5117300;28;19926;-65
2023/03/12 01:42:35;;;;;;;;;;;;;;;1.04;69.50;99190.94;5117397;28;19926;-65
2023/03/12 01:45:05;;;;;;;;;;;;;;;1.04;69.54;99190.94;5117400;28;19926;-64
2023/03/12 01:47:34;;;;;;;;;;;;;;;0.98;70.19;99190.78;5116248;28;19920;-65
2023/03/12 01:50:09;;;;;;;;;;;;;;;0.89;70.13;99194.66;5117247;28;19973;-64
2023/03/12 01:52:39;;;;;;;;;;;;;;;0.83;70.45;99202.88;5116228;28;19926;-66
2023/03/12 01:55:09;;;;;;;;;;;;;;;0.79;70.96;99198.56;5116008;28;19926;-66
2023/03/12 01:57:44;;;;;;;;;;;;;;;0.80;71.09;99205.28;5117203;28;19920;-66
2023/03/12 02:00:13;;;;;;;;;;;;;;;0.71;70.87;99212.53;5116140;28;20464;-65
2023/03/12 02:02:44;;;;;;;;;;;;;;;0.62;70.86;99214.78;5117171;28;20382;-65
2023/03/12 02:05:22;;;;;;;;;;;;;;;0.53;71.10;99219.50;5116139;28;20373;-64
2023/03/12 02:07:51;;;;;;;;;;;;;;;0.52;71.50;99222.81;5115798;28;20354;-65
2023/03/12 02:10:19;;;;;;;;;;;;;;;0.49;71.12;99217.69;5116819;28;20007;-65
2023/03/12 02:12:48;;;;;;;;;;;;;;;0.44;71.02;99225.09;5115693;28;19973;-64
2023/03/12 02:15:17;;;;;;;;;;;;;;;0.39;71.54;99224.09;5115701;28;20009;-64
2023/03/12 02:17:45;;;;;;;;;;;;;;;0.29;71.56;99223.75;5115606;28;19919;-64
2023/03/12 02:20:18;;;;;;;;;;;;;;;0.26;71.75;99223.66;5116927;28;19920;-65
2023/03/12 02:22:51;;;;;;;;;;;;;;;0.24;71.83;99225.28;5116974;28;19923;-66
2023/03/12 02:25:27;;;;;;;;;;;;;;;0.23;72.13;99216.88;5115766;28;19920;-66
2023/03/12 02:27:57;;;;;;;;;;;;;;;0.24;72.07;99222.75;5115312;28;19920;-66
2023/03/12 02:30:25;;;;;;;;;;;;;;;0.27;72.37;99223.69;5114972;28;19973;-65
2023/03/12 02:32:55;;;;;;;;;;;;;;;0.27;72.14;99220.31;5115283;28;19920;-65
2023/03/12 02:35:23;;;;;;;;;;;;;;;0.28;72.65;99217.03;5116435;28;19949;-66
2023/03/12 02:37:54;;;;;;;;;;;;;;;0.13;72.08;99212.38;5115179;28;19965;-64
2023/03/12 02:40:27;;;;;;;;;;;;;;;0.12;72.65;99224.88;5115135;28;19919;-64
2023/03/12 02:42:56;;;;;;;;;;;;;;;0.12;72.40;99224.88;5115119;28;19919;-66
2023/03/12 02:45:26;;;;;;;;;;;;;;;0.12;72.62;99209.81;5116527;28;19977;-65
2023/03/12 02:47:54;;;;;;;;;;;;;;;0.09;72.53;99204.69;5116513;28;20356;-65
2023/03/12 02:50:23;;;;;;;;;;;;;;;0.13;72.46;99211.50;5114941;28;19919;-65
2023/03/12 02:52:51;;;;;;;;;;;;;;;0.11;72.55;99208.09;5115533;28;20355;-66
2023/03/12 02:55:20;;;;;;;;;;;;;;;0.01;72.80;99211.97;5116616;28;19984;-64
2023/03/12 02:57:50;;;;;;;;;;;;;;;0.02;72.36;99213.69;5114802;28;19928;-65
2023/03/12 03:00:19;;;;;;;;;;;;;;;0.08;72.37;99223.91;5114726;28;19973;-65
2023/03/12 03:02:52;;;;;;;;;;;;;;;0.21;72.29;99235.19;5116660;28;19919;-65
2023/03/12 03:05:21;;;;;;;;;;;;;;;0.31;72.11;99242.22;5114906;28;19920;-65
2023/03/12 03:07:50;;;;;;;;;;;;;;;0.39;72.52;99245.81;5116143;28;19952;-65
2023/03/12 03:10:19;;;;;;;;;;;;;;;0.43;72.45;99255.16;5116046;28;20361;-65
2023/03/12 03:12:50;;;;;;;;;;;;;;;0.44;72.41;99261.88;5116370;28;20018;-65
2023/03/12 03:15:18;;;;;;;;;;;;;;;0.45;71.89;99266.97;5115548;28;20392;-66
2023/03/12 03:17:47;;;;;;;;;;;;;;;0.48;71.84;99271.22;5114643;28;20274;-64
2023/03/12 03:20:16;;;;;;;;;;;;;;;0.48;71.54;99271.22;5115770;28;19934;-64
2023/03/12 03:22:44;;;;;;;;;;;;;;;0.51;71.71;99282.22;5115425;28;19965;-64
2023/03/12 03:25:13;;;;;;;;;;;;;;;0.58;71.39;99293.28;5115438;28;19919;-66
2023/03/12 03:27:41;;;;;;;;;;;;;;;0.65;71.33;99288.50;5114253;28;19920;-65
2023/03/12 03:30:12;;;;;;;;;;;;;;;0.59;71.42;99295.00;5114467;28;20397;-65
2023/03/12 03:32:44;;;;;;;;;;;;;;;0.49;70.66;99298.03;5115440;28;19949;-64
2023/03/12 03:35:14;;;;;;;;;;;;;;;0.49;71.24;99293.00;5115203;28;19972;-64
2023/03/12 03:37:42;;;;;;;;;;;;;;;0.43;71.15;99305.38;5114000;28;19969;-64
2023/03/12 03:40:12;;;;;;;;;;;;;;;0.30;71.30;99310.75;5113400;28;19923;-66
2023/03/12 03:42:41;;;;;;;;;;;;;;;0.19;71.29;99304.53;5115386;28;19967;-65
2023/03/12 03:45:12;;;;;;;;;;;;;;;0.17;71.37;99303.66;5115008;28;20386;-66
2023/03/12 03:47:43;;;;;;;;;;;;;;;0.04;71.73;99309.03;5115065;28;19926;-65
2023/03/12 03:50:13;;;;;;;;;;;;;;;-0.05;71.61;99307.91;5113827;28;19925;-64
2023/03/12 03:52:41;;;;;;;;;;;;;;;-0.16;71.62;99316.72;5114289;28;19920;-65
2023/03/12 03:55:10;;;;;;;;;;;;;;;-0.19;72.38;99318.25;5115153;28;19920;-66
2023/03/12 03:57:39;;;;;;;;;;;;;;;-0.20;72.12;99322.44;5114870;28;19924;-65
2023/03/12 04:00:11;;;;;;;;;;;;;;;-0.24;72.12;99320.59;5115031;28;19923;-64
2023/03/12 04:02:42;;;;;;;;;;;;;;;-0.31;72.46;99333.69;5113597;28;20339;-63
2023/03/12 04:05:14;;;;;;;;;;;;;;;-0.32;72.61;99323.63;5114715;28;19942;-65
2023/03/12 04:07:43;;;;;;;;;;;;;;;-0.35;72.97;99316.84;5114750;28;19919;-63
2023/03/12 04:10:13;;;;;;;;;;;;;;;-0.41;72.81;99321.66;5113808;28;20436;-64
2023/03/12 04:12:42;;;;;;;;;;;;;;;-0.41;72.99;99321.66;5115014;28;19943;-65
2023/03/12 04:15:11;;;;;;;;;;;;;;;-0.33;73.18;99325.28;5113341;28;19951;-63
2023/03/12 04:17:39;;;;;;;;;;;;;;;-0.41;72.96;99324.16;5113405;28;19924;-63
2023/03/12 04:20:11;;;;;;;;;;;;;;;-0.57;72.91;99321.00;5113609;28;19919;-63
2023/03/12 04:22:41;;;;;;;;;;;;;;;-0.63;73.32;99329.19;5113614;28;20349;-63
2023/03/12 04:25:11;;;;;;;;;;;;;;;-0.69;73.26;99327.28;5114720;28;20315;-64
2023/03/12 04:27:39;;;;;;;;;;;;;;;-0.66;73.28;99329.06;5114345;28;20385;-66
2023/03/12 04:30:09;;;;;;;;;;;;;;;-0.59;73.35;99335.13;5114787;28;19928;-65
2023/03/12 04:32:38;;;;;;;;;;;;;;;-0.71;73.56;99333.03;5113863;28;19966;-64
2023/03/12 04:35:07;;;;;;;;;;;;;;;-0.77;73.44;99340.34;5113220;28;19920;-63
2023/03/12 04:37:38;;;;;;;;;;;;;;;-0.85;73.61;99342.53;5113474;28;19924;-65
2023/03/12 04:40:08;;;;;;;;;;;;;;;-0.95;73.73;99349.63;5113300;28;19923;-63
2023/03/12 04:42:37;;;;;;;;;;;;;;;-0.98;73.95;99357.00;5114310;28;19986;-65
2023/03/12 04:45:08;;;;;;;;;;;;;;;-1.00;74.07;99359.47;5114860;28;19919;-65
2023/03/12 04:47:40;;;;;;;;;;;;;;;-0.98;74.02;99362.00;5114203;28;19930;-64
2023/03/12 04:50:11;;;;;;;;;;;;;;;-0.96;74.23;99362.97;5114589;28;20370;-65
2023/03/12 04:52:41;;;;;;;;;;;;;;;-0.92;74.38;99364.78;5116605;28;19956;-63
2023/03/12 04:55:11;;;;;;;;;;;;;;;-0.87;74.49;99368.31;5118677;28;20373;-65
2023/03/12 04:57:40;;;;;;;;;;;;;;;-0.91;74.27;99371.50;5118239;28;19953;-64
2023/03/12 05:00:12;;;;;;;;;;;;;;;-1.00;74.15;99376.13;5117147;28;19959;-64
2023/03/12 05:02:43;;;;;;;;;;;;;;;-1.09;74.10;99383.28;5117037;28;19919;-63
2023/03/12 05:05:12;;;;;;;;;;;;;;;-1.09;74.39;99385.78;5118207;28;19958;-63
2023/03/12 05:07:42;;;;;;;;;;;;;;;-1.10;74.39;99391.56;5116849;28;19919;-63
2023/03/12 05:10:12;;;;;;;;;;;;;;;-1.19;74.32;99389.56;5118187;28;19920;-65
2023/03/12 05:12:40;;;;;;;;;;;;;;;-1.12;74.41;99395.66;5116868;28;19965;-65
2023/03/12 05:15:09;;;;;;;;;;;;;;;-1.10;74.55;99401.59;5116568;28;19962;-64
2023/03/12 05:17:38;;;;;;;;;;;;;;;-1.12;74.44;99400.66;5118029;28;19931;-64
2023/03/12 05:20:07;;;;;;;;;;;;;;;-1.14;74.80;99399.75;5116898;28;19951;-66
2023/03/12 05:22:36;;;;;;;;;;;;;;;-1.15;74.67;99413.09;5118078;28;20448;-66
2023/03/12 05:25:07;;;;;;;;;;;;;;;-1.05;75.13;99417.66;5116641;28;19920;-65
2023/03/12 05:27:36;;;;;;;;;;;;;;;-1.07;74.86;99414.22;5116675;28;19919;-64
2023/03/12 05:30:06;;;;;;;;;;;;;;;-1.00;74.82;99421.19;5117024;28;20250;-64
2023/03/12 05:32:36;;;;;;;;;;;;;;;-1.05;74.71;99428.53;5117967;28;19926;-64
2023/03/12 05:35:05;;;;;;;;;;;;;;;-1.13;74.60;99434.03;5116435;28;19920;-65
2023/03/12 05:37:34;;;;;;;;;;;;;;;-1.09;74.88;99440.88;5117648;28;19919;-65
2023/03/12 05:40:04;;;;;;;;;;;;;;;-0.99;75.15;99452.97;5117488;28;19924;-65
2023/03/12 05:42:34;;;;;;;;;;;;;;;-0.89;75.23;99447.56;5116240;28;19920;-64
2023/03/12 05:45:05;;;;;;;;;;;;;;;-0.83;75.18;99455.28;5117770;28;19968;-66
2023/03/12 05:47:34;;;;;;;;;;;;;;;-0.77;75.09;99465.56;5116215;28;19919;-66
2023/03/12 05:50:03;;;;;;;;;;;;;;;-0.77;75.16;99463.06;5116167;28;19920;-65
2023/03/12 05:52:32;;;;;;;;;;;;;;;-0.78;74.86;99463.84;5117112;28;19965;-66
2023/03/12 05:55:00;;;;;;;;;;;;;;;-0.73;75.06;99467.41;5117255;28;19937;-64
2023/03/12 05:57:29;;;;;;;;;;;;;;;-0.57;75.15;99472.22;5116037;28;19965;-64
2023/03/12 06:00:01;;;;;;;;;;;;;;;-0.48;75.08;99462.53;5117504;28;19927;-64
2023/03/12 06:02:40;;;;;;;;;;;;;;;-0.43;75.00;99473.59;5116907;28;20395;-65
2023/03/12 06:05:11;;;;;;;;;;;;;;;-0.30;74.87;99480.81;5116520;28;19930;-64
2023/03/12 06:07:40;;;;;;;;;;;;;;;-0.14;74.55;99473.06;5117317;28;20392;-64
2023/03/12 06:10:09;;;;;;;;;;;;;;;-0.10;74.49;99474.88;5115918;28;19920;-65
2023/03/12 06:12:38;;;;;;;;;;;;;;;-0.06;74.34;99486.78;5116942;28;19920;-66
2023/03/12 06:15:09;;;;;;;;;;;;;;;0.02;74.47;99488.72;5115608;28;20280;-65
2023/03/12 06:17:37;;;;;;;;;;;;;;;0.10;74.52;99493.19;5115745;28;19919;-66
2023/03/12 06:20:06;;;;;;;;;;;;;;;0.29;74.50;99497.28;5115741;28;19919;-65
2023/03/12 06:22:35;;;;;;;;;;;;;;;0.47;74.37;99491.25;5115727;28;19920;-65
2023/03/12 06:25:04;;;;;;;;;;;;;;;0.55;74.33;99496.53;5115425;28;19962;-67
2023/03/12 06:27:32;;;;;;;;;;;;;;;0.80;73.53;99501.63;5115766;28;19989;-67
2023/03/12 06:30:00;;;;;;;;;;;;;;;0.95;73.68;99502.16;5116953;28;19926;-66
2023/03/12 06:32:30;;;;;;;;;;;;;;;1.08;73.03;99499.22;5116397;28;20002;-67
2023/03/12 06:35:00;;;;;;;;;;;;;;;1.09;72.48;99505.97;5116802;28;20281;-67
2023/03/12 06:37:29;;;;;;;;;;;;;;;1.12;72.48;99505.22;5116107;28;19924;-67
2023/03/12 06:39:57;;;;;;;;;;;;;;;1.17;72.01;99513.78;5116360;28;19919;-67
2023/03/12 06:42:26;;;;;;;;;;;;;;;1.32;71.96;99510.09;5116480;28;20415;-67
2023/03/12 06:44:55;;;;;;;;;;;;;;;1.48;72.31;99510.59;5116232;28;19999;-67
2023/03/12 06:47:23;;;;;;;;;;;;;;;1.49;71.49;99512.31;5116220;28;19920;-67
2023/03/12 06:49:53;;;;;;;;;;;;;;;1.43;71.11;99515.50;5116105;28;19963;-67
2023/03/12 06:52:22;;;;;;;;;;;;;;;1.58;70.39;99520.16;5116130;28;20017;-67
2023/03/12 06:54:50;;;;;;;;;;;;;;;1.77;70.20;99520.78;5116035;28;19920;-67
2023/03/12 06:57:18;;;;;;;;;;;;;;;1.99;70.18;99523.13;5116326;28;19920;-67
2023/03/12 06:59:47;;;;;;;;;;;;;;;2.17;69.74;99529.53;5115870;28;19965;-67
2023/03/12 07:02:17;;;;;;;;;;;;;;;2.28;68.82;99526.53;5115905;28;19964;-67
2023/03/12 07:04:46;;;;;;;;;;;;;;;2.34;67.77;99536.78;5116028;28;19920;-67
2023/03/12 07:07:17;;;;;;;;;;;;;;;2.39;68.38;99540.31;5115735;28;19920;-67
2023/03/12 07:09:45;;;;;;;;;;;;;;;2.23;68.21;99543.16;5116209;28;19920;-67
2023/03/12 07:12:13;;;;;;;;;;;;;;;2.38;67.46;99536.06;5115657;28;20002;-67
2023/03/12 07:14:42;;;;;;;;;;;;;;;2.59;67.54;99548.44;5115331;28;19924;-67
2023/03/12 07:17:11;;;;;;;;;;;;;;;2.54;67.12;99548.28;5115884;28;19954;-67
2023/03/12 07:19:39;;;;;;;;;;;;;;;2.55;67.25;99542.44;5115577;28;19965;-67
2023/03/12 07:22:07;;;;;;;;;;;;;;;2.68;67.22;99549.56;5112542;28;20019;-66
2023/03/12 07:24:39;;;;;;;;;;;;;;;2.86;66.15;99555.88;5103236;28;19920;-66
2023/03/12 07:27:07;;;;;;;;;;;;;;;3.13;66.29;99559.16;5095085;28;19920;-66
2023/03/12 07:29:36;;;;;;;;;;;;;;;3.36;65.48;99553.03;5094898;28;19924;-66
2023/03/12 07:32:05;;;;;;;;;;;;;;;3.35;65.73;99556.41;5095297;28;19927;-67
2023/03/12 07:34:33;;;;;;;;;;;;;;;3.35;65.39;99556.41;5095142;28;19923;-67
2023/03/12 07:37:02;;;;;;;;;;;;;;;3.25;64.49;99557.81;5094697;28;19924;-66
2023/03/12 07:39:31;;;;;;;;;;;;;;;3.22;64.67;99564.44;5094613;28;19927;-66
2023/03/12 07:42:01;;;;;;;;;;;;;;;3.03;64.01;99557.19;5095113;28;19920;-67
2023/03/12 07:44:31;;;;;;;;;;;;;;;3.15;64.64;99557.53;5095192;28;19927;-67
2023/03/12 07:47:00;;;;;;;;;;;;;;;3.29;64.47;99556.22;5094616;28;19920;-67
2023/03/12 07:49:48;;;;;;;;;;;;;;;3.42;64.17;99555.72;5094906;28;19924;-66
2023/03/12 07:52:18;;;;;;;;;;;;;;;3.51;63.55;99558.47;5107368;28;19965;-66
2023/03/12 07:54:47;;;;;;;;;;;;;;;3.70;63.15;99559.78;5114775;28;20018;-66
2023/03/12 07:57:17;;;;;;;;;;;;;;;3.62;63.39;99556.25;5115007;28;19927;-66
2023/03/12 07:59:46;;;;;;;;;;;;;;;3.75;63.14;99559.09;5114956;28;19926;-67
2023/03/12 08:02:15;;;;;;;;;;;;;;;3.81;63.03;99564.31;5115050;28;19920;-66
2023/03/12 08:04:43;;;;;;;;;;;;;;;3.88;62.58;99571.19;5114712;28;19919;-66
2023/03/12 08:07:12;;;;;;;;;;;;;;;4.04;62.52;99572.41;5114465;28;19993;-66
2023/03/12 08:09:41;;;;;;;;;;;;;;;4.01;61.67;99563.06;5114848;28;20422;-66
2023/03/12 08:12:09;;;;;;;;;;;;;;;4.29;61.82;99568.78;5114658;28;19920;-66
2023/03/12 08:14:39;;;;;;;;;;;;;;;4.27;61.12;99572.94;5114589;28;19919;-66
2023/03/12 08:17:08;;;;;;;;;;;;;;;4.15;60.57;99565.91;5115289;28;20335;-66
2023/03/12 08:19:36;;;;;;;;;;;;;;;4.11;60.74;99563.28;5114430;28;19919;-66
2023/03/12 08:22:06;;;;;;;;;;;;;;;4.27;60.52;99557.78;5114556;28;19963;-66
2023/03/12 08:24:35;;;;;;;;;;;;;;;4.32;60.10;99566.31;5114296;28;19976;-67
2023/03/12 08:27:03;;;;;;;;;;;;;;;4.22;59.31;99561.88;5114461;28;20280;-66
2023/03/12 08:29:32;;;;;;;;;;;;;;;4.30;58.58;99570.44;5114320;28;19966;-66
2023/03/12 08:32:02;;;;;;;;;;;;;;;4.30;58.22;99568.78;5114172;28;20006;-66
2023/03/12 08:34:33;;;;;;;;;;;;;;;4.32;58.39;99573.91;5114712;28;19931;-66
2023/03/12 08:37:02;;;;;;;;;;;;;;;4.33;57.81;99575.59;5114688;28;20369;-66
2023/03/12 08:39:30;;;;;;;;;;;;;;;4.45;57.92;99570.81;5114798;28;19928;-66
2023/03/12 08:41:59;;;;;;;;;;;;;;;4.58;58.11;99573.59;5114323;28;19920;-66
2023/03/12 08:44:27;;;;;;;;;;;;;;;4.88;58.21;99572.53;5113133;28;19926;-67
2023/03/12 08:46:55;;;;;;;;;;;;;;;4.84;57.99;99584.28;5114197;28;20010;-66
2023/03/12 08:49:26;;;;;;;;;;;;;;;4.95;58.12;99580.28;5114476;28;19943;-67
2023/03/12 08:51:54;;;;;;;;;;;;;;;4.99;57.86;99578.69;5114645;28;19924;-66
2023/03/12 08:54:23;;;;;;;;;;;;;;;5.27;57.85;99574.19;5114162;28;20369;-68
2023/03/12 08:56:52;;;;;;;;;;;;;;;5.47;57.03;99571.16;5114538;28;19920;-68
2023/03/12 08:59:22;;;;;;;;;;;;;;;5.49;56.70;99567.81;5114140;28;20456;-68
2023/03/12 09:01:50;;;;;;;;;;;;;;;5.51;56.43;99556.03;5113995;28;19942;-68
2023/03/12 09:04:19;;;;;;;;;;;;;;;5.65;55.94;99561.34;5114312;28;19920;-68
2023/03/12 09:06:49;;;;;;;;;;;;;;;5.77;54.96;99561.53;5114417;28;19966;-68
2023/03/12 09:09:17;;;;;;;;;;;;;;;5.72;54.61;99556.41;5114101;28;20365;-68
2023/03/12 09:11:46;;;;;;;;;;;;;;;5.56;54.42;99558.66;5114378;28;19920;-67
2023/03/12 09:14:14;;;;;;;;;;;;;;;5.54;54.35;99557.78;5113719;28;19965;-68
2023/03/12 09:17:02;;;;;;;;;;;;;;;5.57;54.68;99560.34;5114308;28;19972;-67
2023/03/12 09:19:31;;;;;;;;;;;;;;;5.69;55.02;99558.00;5113956;28;19965;-68
2023/03/12 09:22:01;;;;;;;;;;;;;;;6.02;54.78;99564.50;5114215;28;20354;-67
2023/03/12 09:24:29;;;;;;;;;;;;;;;5.72;54.80;99553.00;5113820;28;20015;-66
2023/03/12 09:26:58;;;;;;;;;;;;;;;5.76;54.98;99565.75;5113827;28;19955;-68
2023/03/12 09:29:26;;;;;;;;;;;;;;;5.43;54.08;99571.09;5113988;28;19919;-67
2023/03/12 09:31:54;;;;;;;;;;;;;;;5.35;54.28;99567.56;5114037;28;20336;-68
2023/03/12 09:34:23;;;;;;;;;;;;;;;5.56;54.05;99566.25;5114049;28;20365;-68
2023/03/12 09:36:51;;;;;;;;;;;;;;;5.79;53.94;99564.94;5113823;28;19920;-68
2023/03/12 09:39:22;;;;;;;;;;;;;;;6.00;53.41;99570.38;5116859;28;19920;-68
2023/03/12 09:41:51;;;;;;;;;;;;;;;6.10;52.70;99567.16;5117952;28;19920;-68
2023/03/12 09:44:24;;;;;;;;;;;;;;;6.18;52.59;99565.59;5117716;28;19974;-68
2023/03/12 09:46:54;;;;;;;;;;;;;;;6.48;52.22;99565.16;5117763;28;19926;-68
2023/03/12 09:49:27;;;;;;;;;;;;;;;6.76;52.06;99562.19;5117700;28;20281;-68
2023/03/12 09:51:58;;;;;;;;;;;;;;;6.80;52.09;99565.59;5117361;28;20327;-68
2023/03/12 09:54:33;;;;;;;;;;;;;;;6.61;50.99;99572.13;5117309;28;20297;-67
2023/03/12 09:57:04;;;;;;;;;;;;;;;6.46;50.51;99565.16;5117455;28;20369;-67
2023/03/12 09:59:34;;;;;;;;;;;;;;;6.36;50.20;99573.44;5117555;28;19920;-67
2023/03/12 10:02:05;;;;;;;;;;;;;;;6.30;50.28;99570.84;5117180;28;19920;-67
2023/03/12 10:04:39;;;;;;;;;;;;;;;6.47;50.33;99571.94;5116968;28;20370;-67
2023/03/12 10:07:31;;;;;;;;;;;;;;;6.73;50.20;99568.06;5117365;28;20358;-67
2023/03/12 10:10:17;;;;;;;;;;;;;;;7.12;50.76;99566.81;5117323;28;19919;-68
2023/03/12 10:13:00;;;;;;;;;;;;;;;7.38;49.72;99555.25;5117068;28;19982;-67
2023/03/12 10:15:36;;;;;;;;;;;;;;;7.26;48.94;99566.16;5116782;28;20015;-67
2023/03/12 10:18:15;;;;;;;;;;;;;;;7.24;49.65;99572.03;5116806;27;20281;-67
2023/03/12 10:20:52;;;;;;;;;;;;;;;7.25;49.57;99566.97;5116848;28;19923;-68
2023/03/12 10:23:26;;;;;;;;;;;;;;;7.53;49.15;99567.25;5111995;28;20374;-68
2023/03/12 10:25:58;;;;;;;;;;;;;;;7.71;49.00;99575.88;5096386;28;19920;-67
2023/03/12 10:28:32;;;;;;;;;;;;;;;8.05;49.58;99577.88;5096492;28;20372;-68
2023/03/12 10:31:02;;;;;;;;;;;;;;;8.21;48.71;99577.97;5096499;28;20323;-67
2023/03/12 10:33:39;;;;;;;;;;;;;;;8.29;48.00;99573.81;5096144;28;19999;-67
2023/03/12 10:36:13;;;;;;;;;;;;;;;8.38;47.98;99576.41;5096387;28;19966;-68
2023/03/12 10:38:42;;;;;;;;;;;;;;;8.25;47.78;99574.63;5096083;28;19920;-68
2023/03/12 10:41:14;;;;;;;;;;;;;;;8.26;48.23;99573.75;5096284;28;19955;-68
2023/03/12 10:43:44;;;;;;;;;;;;;;;8.28;47.85;99574.69;5095965;28;19920;-67
2023/03/12 10:46:32;;;;;;;;;;;;;;;8.03;47.54;99571.94;5096051;28;19927;-67
2023/03/12 10:49:12;;;;;;;;;;;;;;;7.82;47.19;99576.81;5096008;28;19957;-67
2023/03/12 10:51:53;;;;;;;;;;;;;;;7.70;46.75;99574.16;5095756;28;20018;-68
2023/03/12 10:54:22;;;;;;;;;;;;;;;7.92;47.73;99565.91;5095651;28;19998;-67
2023/03/12 10:56:52;;;;;;;;;;;;;;;7.94;47.05;99571.84;5095820;28;19920;-66
2023/03/12 10:59:23;;;;;;;;;;;;;;;7.96;47.73;99567.66;5095601;28;19920;-67
2023/03/12 11:01:52;;;;;;;;;;;;;;;8.30;47.88;99573.00;5095588;28;19927;-67
2023/03/12 11:04:23;;;;;;;;;;;;;;;8.29;47.13;99566.19;5095777;28;19967;-67
2023/03/12 11:07:05;;;;;;;;;;;;;;;8.29;46.41;99566.19;5095484;28;19920;-67
2023/03/12 11:09:33;;;;;;;;;;;;;;;8.44;46.01;99561.22;5095981;28;19920;-67
2023/03/12 11:12:02;;;;;;;;;;;;;;;8.31;46.96;99565.38;5095371;28;20006;-67
2023/03/12 11:14:32;;;;;;;;;;;;;;;8.16;46.58;99564.41;5095276;28;19928;-67
2023/03/12 11:17:19;;;;;;;;;;;;;;;8.24;46.91;99562.72;5095349;28;19965;-66
2023/03/12 11:19:48;;;;;;;;;;;;;;;8.22;46.86;99555.09;5095229;28;20366;-67
2023/03/12 11:22:27;;;;;;;;;;;;;;;8.36;47.38;99555.22;5095487;28;19993;-66
2023/03/12 11:24:56;;;;;;;;;;;;;;;8.61;45.90;99559.63;5095332;28;19984;-66
2023/03/12 11:27:30;;;;;;;;;;;;;;;8.56;45.59;99557.06;5095646;28;20320;-66
2023/03/12 11:30:03;;;;;;;;;;;;;;;8.71;44.59;99548.63;5095073;28;19920;-66
2023/03/12 11:32:34;;;;;;;;;;;;;;;8.96;43.85;99550.44;5094939;28;19973;-66
2023/03/12 11:35:04;;;;;;;;;;;;;;;9.18;44.29;99549.66;5095029;28;19927;-66
2023/03/12 11:37:39;;;;;;;;;;;;;;;9.29;43.57;99542.88;5095336;28;20377;-66
2023/03/12 11:40:15;;;;;;;;;;;;;;;9.56;42.80;99541.22;5094925;28;20313;-66
2023/03/12 11:42:53;;;;;;;;;;;;;;;9.61;41.61;99534.44;5094905;28;20014;-66
2023/03/12 11:45:26;;;;;;;;;;;;;;;9.63;41.52;99533.59;5094893;28;19920;-66
2023/03/12 11:48:00;;;;;;;;;;;;;;;9.53;41.42;99538.66;5093883;28;20023;-66
2023/03/12 11:50:37;;;;;;;;;;;;;;;9.51;41.11;99525.06;5094670;28;19927;-66
2023/03/12 11:53:14;;;;;;;;;;;;;;;9.48;41.36;99520.00;5094978;28;19921;-66
2023/03/12 11:55:55;;;;;;;;;;;;;;;9.71;40.50;99521.72;5095186;28;19920;-66
2023/03/12 11:58:36;;;;;;;;;;;;;;;9.94;39.83;99514.03;5093632;28;19924;-66
2023/03/12 12:01:10;;;;;;;;;;;;;;;10.35;40.23;99514.00;5094274;28;20366;-66
2023/03/12 12:03:53;;;;;;;;;;;;;;;10.26;39.10;99519.97;5094306;28;19973;-65
2023/03/12 12:06:30;;;;;;;;;;;;;;;10.34;39.05;99515.69;5093109;28;20433;-66
2023/03/12 12:09:05;;;;;;;;;;;;;;;10.16;38.14;99513.19;5094461;28;19943;-65
2023/03/12 12:11:40;;;;;;;;;;;;;;;10.10;37.96;99513.19;5094207;28;19920;-65
2023/03/12 12:14:15;;;;;;;;;;;;;;;10.07;37.97;99510.63;5093174;28;19920;-66
2023/03/12 12:16:58;;;;;;;;;;;;;;;10.19;37.45;99505.56;5094291;28;19920;-65
2023/03/12 12:19:35;;;;;;;;;;;;;;;10.28;37.46;99510.63;5094303;28;19920;-65
2023/03/12 12:22:11;;;;;;;;;;;;;;;10.29;36.64;99502.13;5094473;28;20420;-65
2023/03/12 12:24:53;;;;;;;;;;;;;;;10.44;36.52;99507.16;5094530;28;19947;-66
2023/03/12 12:27:24;;;;;;;;;;;;;;;10.51;36.07;99498.63;5094430;28;19942;-66
2023/03/12 12:30:07;;;;;;;;;;;;;;;10.70;35.94;99490.06;5094439;28;20293;-65
2023/03/12 12:32:42;;;;;;;;;;;;;;;10.44;35.19;99491.84;5093157;28;19965;-65
2023/03/12 12:35:19;;;;;;;;;;;;;;;10.32;35.08;99506.38;5094066;28;19920;-65
2023/03/12 12:37:51;;;;;;;;;;;;;;;10.51;35.13;99500.38;5094352;28;20335;-65
2023/03/12 12:40:25;;;;;;;;;;;;;;;10.33;34.83;99503.81;5094346;28;19924;-65
2023/03/12 12:42:59;;;;;;;;;;;;;;;10.42;34.74;99508.03;5094050;28;19978;-65
2023/03/12 12:45:28;;;;;;;;;;;;;;;10.44;34.66;99502.06;5093951;28;20392;-65
2023/03/12 12:48:03;;;;;;;;;;;;;;;10.43;34.55;99510.59;5092669;28;19923;-65
2023/03/12 12:50:35;;;;;;;;;;;;;;;10.50;34.44;99496.97;5093976;28;20362;-65
2023/03/12 12:53:09;;;;;;;;;;;;;;;10.67;33.67;99502.84;5093056;28;19942;-65
2023/03/12 12:55:43;;;;;;;;;;;;;;;10.74;32.20;99496.88;5093922;28;19926;-66
2023/03/12 12:58:15;;;;;;;;;;;;;;;10.76;30.82;99495.16;5093841;28;19920;-65
2023/03/12 13:00:47;;;;;;;;;;;;;;;10.55;30.65;99502.91;5094199;28;19927;-65
2023/03/12 13:03:18;;;;;;;;;;;;;;;10.48;30.42;99508.03;5094190;28;19920;-65
2023/03/12 13:05:53;;;;;;;;;;;;;;;10.42;30.26;99503.78;5093702;28;20350;-65
2023/03/12 13:08:36;;;;;;;;;;;;;;;10.19;30.40;99497.03;5094400;28;19920;-65
2023/03/12 13:11:06;;;;;;;;;;;;;;;10.18;30.60;99493.63;5085196;28;20010;-65
2023/03/12 13:13:49;;;;;;;;;;;;;;;10.46;30.89;99495.25;5096225;28;19927;-65